Terminal Aerodrome Forecast
Issued by NWS

Home | Current Version | Previous Version | Graphics & Text | Print | Product List | Glossary On
Versions: 1 2 3 4 5 6 7 8 9 10 11 12 13 14 15 16 17 18 19
000
FTUS43 KIWX 192300
TAFSBN
TAF
KSBN 192326Z 2000/2024 20010KT P6SM BKN150
     FM200600 21010KT P6SM BKN080
     FM201400 25012KT P6SM VCSH SCT015 OVC030
     FM202000 31012KT P6SM VCSH SCT015 BKN030=

USA.gov is the U.S. government's official web portal to all federal, state and local government web resources and services.